Time,TemperatureF,DewpointF,PressureIn,WindDirection,WindDirectionDegrees,WindSpeedMPH,WindSpeedGustMPH,Humidity,HourlyPrecipIn,Conditions,Clouds,dailyrainin,SolarRadiationWatts/m^2,SoftwareType,DateUTC
2013-02-01 00:22:00,25.0,21.0,-100.00,NNE,29,3.0,6.0,84,0.00,,,0.20,0.000000,,2013-02-01 07:22:00,
2013-02-01 00:32:00,25.0,21.0,-100.00,NNE,29,3.0,6.0,84,0.00,,,0.20,0.000000,,2013-02-01 07:32:00,
2013-02-01 00:41:00,25.0,21.0,-100.00,NNE,29,3.0,6.0,84,0.00,,,0.20,0.000000,,2013-02-01 07:41:00,
2013-02-01 00:51:00,25.0,21.0,-100.00,NNE,29,3.0,6.0,84,0.00,,,0.20,0.000000,,2013-02-01 07:51:00,
2013-02-01 01:21:00,25.0,21.0,-100.00,NNE,32,2.0,6.0,84,0.00,,,0.20,0.000000,,2013-02-01 08:21:00,
2013-02-01 01:31:00,25.0,21.0,-100.00,NNE,32,2.0,6.0,84,0.00,,,0.20,0.000000,,2013-02-01 08:31:00,
2013-02-01 01:42:00,25.0,21.0,-100.00,NNE,32,2.0,6.0,84,0.00,,,0.20,0.000000,,2013-02-01 08:42:00,
2013-02-01 01:52:00,25.0,21.0,-100.00,NNE,32,2.0,6.0,84,0.00,,,0.20,0.000000,,2013-02-01 08:52:00,
2013-02-01 02:21:00,23.0,19.0,-100.00,NNE,16,3.0,6.0,85,0.00,,,0.20,0.000000,,2013-02-01 09:21:00,
2013-02-01 02:32:00,23.0,19.0,-100.00,NNE,16,3.0,6.0,85,0.00,,,0.20,0.000000,,2013-02-01 09:32:00,
2013-02-01 02:41:00,23.0,19.0,-100.00,NNE,16,3.0,6.0,85,0.00,,,0.20,0.000000,,2013-02-01 09:41:00,
2013-02-01 02:51:00,23.0,19.0,-100.00,NNE,16,3.0,6.0,85,0.00,,,0.20,0.000000,,2013-02-01 09:51:00,
2013-02-01 03:21:00,22.0,18.0,-100.00,NNE,21,4.0,6.0,85,0.00,,,0.20,0.000000,,2013-02-01 10:21:00,
2013-02-01 03:31:00,22.0,18.0,-100.00,NNE,21,4.0,6.0,85,0.00,,,0.20,0.000000,,2013-02-01 10:31:00,
2013-02-01 03:42:00,22.0,18.0,-100.00,NNE,21,4.0,6.0,85,0.00,,,0.20,0.000000,,2013-02-01 10:42:00,
2013-02-01 03:52:00,22.0,18.0,-100.00,NNE,21,4.0,6.0,85,0.00,,,0.20,0.000000,,2013-02-01 10:52:00,
2013-02-01 04:21:00,22.0,19.0,-100.00,ESE,102,2.0,6.0,87,-99.99,,,0.20,0.000000,,2013-02-01 11:21:00,
2013-02-01 04:32:00,22.0,19.0,-100.00,ESE,102,2.0,6.0,87,-99.99,,,0.20,0.000000,,2013-02-01 11:32:00,
2013-02-01 04:41:00,22.0,19.0,-100.00,ESE,102,2.0,6.0,87,-99.99,,,0.20,0.000000,,2013-02-01 11:41:00,
2013-02-01 04:53:00,22.0,19.0,-100.00,ESE,102,2.0,6.0,87,-99.99,,,0.20,0.000000,,2013-02-01 11:53:00,
2013-02-01 05:22:00,22.0,19.0,-100.00,East,83,3.0,5.0,88,-99.99,,,0.20,0.000000,,2013-02-01 12:22:00,
2013-02-01 05:32:00,22.0,19.0,-100.00,East,83,3.0,5.0,88,-99.99,,,0.20,0.000000,,2013-02-01 12:32:00,
2013-02-01 06:21:00,20.0,16.0,-100.00,North,11,4.0,5.0,86,-99.99,,,0.20,0.000000,,2013-02-01 13:21:00,
2013-02-01 06:32:00,20.0,16.0,-100.00,North,11,4.0,5.0,86,-99.99,,,0.20,0.000000,,2013-02-01 13:32:00,
2013-02-01 07:21:00,21.0,18.0,-100.00,NNW,338,2.0,4.0,88,-99.99,,,0.20,0.000000,,2013-02-01 14:21:00,
2013-02-01 07:32:00,21.0,18.0,-100.00,NNW,338,2.0,4.0,88,-99.99,,,0.20,0.000000,,2013-02-01 14:32:00,
2013-02-01 08:21:00,27.0,21.0,-100.00,South,182,0.0,4.0,77,-99.99,,,-99.99,40.000000,,2013-02-01 15:21:00,
2013-02-01 08:32:00,27.0,21.0,-100.00,South,182,0.0,4.0,77,-99.99,,,-99.99,40.000000,,2013-02-01 15:32:00,
2013-02-01 10:22:00,33.0,20.0,-100.00,SSE,157,4.0,6.0,58,0.00,,,0.20,391.000000,,2013-02-01 17:22:00,
2013-02-01 11:22:00,37.0,22.0,-100.00,South,190,3.0,7.0,55,-99.99,,,0.19,542.000000,,2013-02-01 18:22:00,
2013-02-01 11:32:00,37.0,22.0,-100.00,South,190,3.0,7.0,55,-99.99,,,0.19,542.000000,,2013-02-01 18:32:00,
2013-02-01 12:21:00,39.0,24.0,-100.00,SSE,167,5.0,9.0,55,0.00,,,0.18,629.000000,,2013-02-01 19:21:00,
2013-02-01 12:32:00,39.0,24.0,-100.00,SSE,167,5.0,9.0,55,0.00,,,0.18,629.000000,,2013-02-01 19:32:00,
2013-02-01 12:41:00,39.0,24.0,-100.00,SSE,167,5.0,9.0,55,0.00,,,0.18,629.000000,,2013-02-01 19:41:00,
2013-02-01 12:51:00,39.0,24.0,-100.00,SSE,167,5.0,9.0,55,0.00,,,0.18,629.000000,,2013-02-01 19:51:00,
2013-02-01 13:21:00,40.0,23.0,-100.00,South,189,6.0,11.0,50,0.00,,,0.16,847.000000,,2013-02-01 20:21:00,
2013-02-01 13:31:00,40.0,23.0,-100.00,South,189,6.0,11.0,50,0.00,,,0.16,847.000000,,2013-02-01 20:31:00,
2013-02-01 13:41:00,40.0,23.0,-100.00,South,189,6.0,11.0,50,0.00,,,0.16,847.000000,,2013-02-01 20:41:00,
2013-02-01 13:52:00,40.0,23.0,-100.00,South,189,6.0,11.0,50,0.00,,,0.16,847.000000,,2013-02-01 20:52:00,
2013-02-01 14:21:00,42.0,24.0,-100.00,SW,232,4.0,11.0,48,0.00,,,0.12,762.000000,,2013-02-01 21:21:00,
2013-02-01 14:31:00,42.0,24.0,-100.00,SW,232,4.0,11.0,48,0.00,,,0.12,762.000000,,2013-02-01 21:31:00,
2013-02-01 14:41:00,42.0,24.0,-100.00,SW,232,4.0,11.0,48,0.00,,,0.12,762.000000,,2013-02-01 21:41:00,
2013-02-01 14:52:00,42.0,24.0,-100.00,SW,232,4.0,11.0,48,0.00,,,0.12,762.000000,,2013-02-01 21:52:00,
2013-02-01 15:21:00,42.0,23.0,-100.00,WSW,237,5.0,10.0,46,0.00,,,0.03,554.000000,,2013-02-01 22:21:00,
2013-02-01 15:32:00,42.0,23.0,-100.00,WSW,237,5.0,10.0,46,0.00,,,0.03,554.000000,,2013-02-01 22:32:00,
2013-02-01 15:42:00,42.0,23.0,-100.00,WSW,237,5.0,10.0,46,0.00,,,0.03,554.000000,,2013-02-01 22:42:00,
2013-02-01 15:51:00,42.0,23.0,-100.00,WSW,237,5.0,10.0,46,0.00,,,0.03,554.000000,,2013-02-01 22:51:00,
2013-02-01 16:11:00,43.0,22.0,-100.00,West,273,4.0,10.0,43,0.00,,,0.01,399.000000,,2013-02-01 23:11:00,
2013-02-01 16:21:00,43.0,22.0,-100.00,West,273,4.0,10.0,43,0.00,,,0.01,399.000000,,2013-02-01 23:21:00,
2013-02-01 16:31:00,43.0,22.0,-100.00,West,273,4.0,10.0,43,0.00,,,0.01,399.000000,,2013-02-01 23:31:00,
2013-02-01 16:41:00,43.0,22.0,-100.00,West,273,4.0,10.0,43,0.00,,,0.01,399.000000,,2013-02-01 23:41:00,
2013-02-01 16:52:00,43.0,22.0,-100.00,West,273,4.0,10.0,43,0.00,,,0.01,399.000000,,2013-02-01 23:52:00,
2013-02-01 17:21:00,42.0,23.0,-100.00,South,188,3.0,7.0,46,0.00,,,0.01,216.000000,,2013-02-02 00:21:00,
2013-02-01 17:32:00,42.0,23.0,-100.00,South,188,3.0,7.0,46,0.00,,,0.01,216.000000,,2013-02-02 00:32:00,
2013-02-01 17:41:00,42.0,23.0,-100.00,South,188,3.0,7.0,46,0.00,,,0.01,216.000000,,2013-02-02 00:41:00,
2013-02-01 17:52:00,42.0,23.0,-100.00,South,188,3.0,7.0,46,0.00,,,0.01,216.000000,,2013-02-02 00:52:00,
2013-02-01 18:11:00,33.0,23.0,-100.00,NNE,17,5.0,6.0,66,0.00,,,0.01,32.000000,,2013-02-02 01:11:00,
2013-02-01 18:21:00,33.0,23.0,-100.00,NNE,17,5.0,6.0,66,0.00,,,0.01,32.000000,,2013-02-02 01:21:00,
2013-02-01 18:31:00,33.0,23.0,-100.00,NNE,17,5.0,6.0,66,0.00,,,0.01,32.000000,,2013-02-02 01:31:00,
2013-02-01 18:41:00,33.0,23.0,-100.00,NNE,17,5.0,6.0,66,0.00,,,0.01,32.000000,,2013-02-02 01:41:00,
2013-02-01 18:52:00,33.0,23.0,-100.00,NNE,17,5.0,6.0,66,0.00,,,0.01,32.000000,,2013-02-02 01:52:00,
2013-02-01 19:21:00,30.0,23.0,-100.00,NNE,20,5.0,8.0,74,0.00,,,0.01,0.000000,,2013-02-02 02:21:00,
2013-02-01 19:31:00,30.0,23.0,-100.00,NNE,20,5.0,8.0,74,0.00,,,0.01,0.000000,,2013-02-02 02:31:00,
2013-02-01 19:41:00,30.0,23.0,-100.00,NNE,20,5.0,8.0,74,0.00,,,0.01,0.000000,,2013-02-02 02:41:00,
2013-02-01 19:52:00,30.0,23.0,-100.00,NNE,20,5.0,8.0,74,0.00,,,0.01,0.000000,,2013-02-02 02:52:00,
2013-02-01 20:21:00,30.0,22.0,-100.00,NNE,16,5.0,8.0,72,0.00,,,0.01,0.000000,,2013-02-02 03:21:00,
2013-02-01 20:32:00,30.0,22.0,-100.00,NNE,16,5.0,8.0,72,0.00,,,0.01,0.000000,,2013-02-02 03:32:00,
2013-02-01 20:42:00,30.0,22.0,-100.00,NNE,16,5.0,8.0,72,0.00,,,0.01,0.000000,,2013-02-02 03:42:00,
2013-02-01 20:51:00,30.0,22.0,-100.00,NNE,16,5.0,8.0,72,0.00,,,0.01,0.000000,,2013-02-02 03:51:00,
2013-02-01 21:21:00,28.0,22.0,-100.00,NNW,343,4.0,6.0,79,0.00,,,0.01,0.000000,,2013-02-02 04:21:00,
2013-02-01 21:32:00,28.0,22.0,-100.00,NNW,343,4.0,6.0,79,0.00,,,0.01,0.000000,,2013-02-02 04:32:00,
2013-02-01 21:41:00,28.0,22.0,-100.00,NNW,343,4.0,6.0,79,0.00,,,0.01,0.000000,,2013-02-02 04:41:00,
2013-02-01 21:51:00,28.0,22.0,-100.00,NNW,343,4.0,6.0,79,0.00,,,0.01,0.000000,,2013-02-02 04:51:00,
2013-02-01 22:22:00,29.0,22.0,-100.00,East,85,2.0,6.0,75,0.00,,,0.01,0.000000,,2013-02-02 05:22:00,
2013-02-01 22:33:00,29.0,22.0,-100.00,East,85,2.0,6.0,75,0.00,,,0.01,0.000000,,2013-02-02 05:33:00,
2013-02-01 22:41:00,29.0,22.0,-100.00,East,85,2.0,6.0,75,0.00,,,0.01,0.000000,,2013-02-02 05:41:00,
2013-02-01 22:52:00,29.0,22.0,-100.00,East,85,2.0,6.0,75,0.00,,,0.01,0.000000,,2013-02-02 05:52:00,
2013-02-01 23:21:00,27.0,22.0,-100.00,NNE,33,2.0,7.0,80,0.00,,,0.01,0.000000,,2013-02-02 06:21:00,
2013-02-01 23:31:00,27.0,22.0,-100.00,NNE,33,2.0,7.0,80,0.00,,,0.01,0.000000,,2013-02-02 06:31:00,
2013-02-01 23:41:00,27.0,22.0,-100.00,NNE,33,2.0,7.0,80,0.00,,,0.01,0.000000,,2013-02-02 06:41:00,
2013-02-01 23:51:00,27.0,22.0,-100.00,NNE,33,2.0,7.0,80,0.00,,,0.01,0.000000,,2013-02-02 06:51:00,